sensor_id;sensor_type;location;lat;lon;timestamp;pressure;altitude;pressure_sealevel;temperature;humidity
71889;BME280;59762;49.998;14.858;2023-04-26T00:01:29;97201.72;;;3.48;78.86
71889;BME280;59762;49.998;14.858;2023-04-26T00:03:55;97192.72;;;3.50;78.11
71889;BME280;59762;49.998;14.858;2023-04-26T00:06:21;97195.59;;;3.47;78.16
71889;BME280;59762;49.998;14.858;2023-04-26T00:08:47;97195.00;;;3.44;78.05
71889;BME280;59762;49.998;14.858;2023-04-26T00:11:13;97194.78;;;3.47;77.41
71889;BME280;59762;49.998;14.858;2023-04-26T00:13:38;97187.56;;;3.49;77.25
71889;BME280;59762;49.998;14.858;2023-04-26T00:16:05;97194.03;;;3.45;77.69
71889;BME280;59762;49.998;14.858;2023-04-26T00:18:31;97197.06;;;3.40;77.64
71889;BME280;59762;49.998;14.858;2023-04-26T00:20:56;97196.31;;;3.38;77.25
71889;BME280;59762;49.998;14.858;2023-04-26T00:23:22;97196.34;;;3.27;78.19
71889;BME280;59762;49.998;14.858;2023-04-26T00:25:48;97193.44;;;3.19;78.85
71889;BME280;59762;49.998;14.858;2023-04-26T00:28:14;97193.78;;;3.15;78.53
71889;BME280;59762;49.998;14.858;2023-04-26T00:30:40;97190.44;;;3.13;78.41
71889;BME280;59762;49.998;14.858;2023-04-26T00:33:12;97196.69;;;3.12;78.58
71889;BME280;59762;49.998;14.858;2023-04-26T00:35:37;97193.41;;;3.08;78.75
71889;BME280;59762;49.998;14.858;2023-04-26T00:38:03;97192.72;;;3.06;78.58
71889;BME280;59762;49.998;14.858;2023-04-26T00:40:29;97197.03;;;3.07;77.87
71889;BME280;59762;49.998;14.858;2023-04-26T00:42:57;97193.78;;;3.15;77.33
71889;BME280;59762;49.998;14.858;2023-04-26T00:45:22;97194.16;;;3.10;76.83
71889;BME280;59762;49.998;14.858;2023-04-26T00:47:49;97204.47;;;3.13;77.53
71889;BME280;59762;49.998;14.858;2023-04-26T00:50:15;97192.13;;;3.14;77.59
71889;BME280;59762;49.998;14.858;2023-04-26T00:52:42;97197.88;;;3.08;76.88
71889;BME280;59762;49.998;14.858;2023-04-26T00:55:08;97202.66;;;3.03;78.80
71889;BME280;59762;49.998;14.858;2023-04-26T00:57:34;97206.50;;;2.99;77.92
71889;BME280;59762;49.998;14.858;2023-04-26T01:00:00;97212.72;;;2.98;78.60
71889;BME280;59762;49.998;14.858;2023-04-26T01:02:26;97199.41;;;2.88;77.69
71889;BME280;59762;49.998;14.858;2023-04-26T01:04:51;97202.28;;;2.96;76.97
71889;BME280;59762;49.998;14.858;2023-04-26T01:07:17;97205.88;;;2.95;76.72
71889;BME280;59762;49.998;14.858;2023-04-26T01:09:43;97209.47;;;2.94;76.86
71889;BME280;59762;49.998;14.858;2023-04-26T01:12:10;97212.94;;;2.95;76.18
71889;BME280;59762;49.998;14.858;2023-04-26T01:14:36;97214.13;;;2.91;76.39
71889;BME280;59762;49.998;14.858;2023-04-26T01:17:02;97213.88;;;2.83;77.73
71889;BME280;59762;49.998;14.858;2023-04-26T01:19:30;97218.44;;;2.92;76.21
71889;BME280;59762;49.998;14.858;2023-04-26T01:21:56;97208.75;;;2.92;75.86
71889;BME280;59762;49.998;14.858;2023-04-26T01:24:22;97210.06;;;2.87;76.56
71889;BME280;59762;49.998;14.858;2023-04-26T01:26:48;97217.13;;;2.86;76.12
71889;BME280;59762;49.998;14.858;2023-04-26T01:31:40;97222.75;;;2.82;77.30
71889;BME280;59762;49.998;14.858;2023-04-26T01:34:05;97231.00;;;2.77;76.85
71889;BME280;59762;49.998;14.858;2023-04-26T01:36:31;97229.31;;;2.76;76.88
71889;BME280;59762;49.998;14.858;2023-04-26T01:38:57;97228.94;;;2.70;78.03
71889;BME280;59762;49.998;14.858;2023-04-26T01:41:23;97230.00;;;2.67;78.78
71889;BME280;59762;49.998;14.858;2023-04-26T01:43:48;97231.69;;;2.68;77.73
71889;BME280;59762;49.998;14.858;2023-04-26T01:46:14;97240.56;;;2.67;78.41
71889;BME280;59762;49.998;14.858;2023-04-26T01:48:40;97239.94;;;2.64;78.50
71889;BME280;59762;49.998;14.858;2023-04-26T01:51:06;97242.47;;;2.65;78.95
71889;BME280;59762;49.998;14.858;2023-04-26T01:53:32;97235.97;;;2.58;78.87
71889;BME280;59762;49.998;14.858;2023-04-26T01:56:01;97238.63;;;2.69;78.96
71889;BME280;59762;49.998;14.858;2023-04-26T01:58:28;97236.13;;;2.68;79.28
71889;BME280;59762;49.998;14.858;2023-04-26T02:00:55;97244.25;;;2.65;79.15
71889;BME280;59762;49.998;14.858;2023-04-26T02:03:20;97244.09;;;2.55;80.17
71889;BME280;59762;49.998;14.858;2023-04-26T02:05:46;97243.88;;;2.58;79.83
71889;BME280;59762;49.998;14.858;2023-04-26T02:08:12;97245.44;;;2.61;79.92
71889;BME280;59762;49.998;14.858;2023-04-26T02:10:38;97248.06;;;2.61;80.57
71889;BME280;59762;49.998;14.858;2023-04-26T02:13:07;97247.47;;;2.57;80.61
71889;BME280;59762;49.998;14.858;2023-04-26T02:15:33;97250.94;;;2.58;80.23
71889;BME280;59762;49.998;14.858;2023-04-26T02:17:58;97247.69;;;2.54;81.00
71889;BME280;59762;49.998;14.858;2023-04-26T02:20:24;97249.09;;;2.47;80.99
71889;BME280;59762;49.998;14.858;2023-04-26T02:22:50;97243.09;;;2.45;81.37
71889;BME280;59762;49.998;14.858;2023-04-26T02:25:15;97245.13;;;2.42;81.60
71889;BME280;59762;49.998;14.858;2023-04-26T02:27:41;97246.53;;;2.35;81.85
71889;BME280;59762;49.998;14.858;2023-04-26T02:30:08;97247.59;;;2.32;83.39
71889;BME280;59762;49.998;14.858;2023-04-26T02:32:34;97249.50;;;2.30;82.59
71889;BME280;59762;49.998;14.858;2023-04-26T02:34:59;97238.97;;;2.30;82.76
71889;BME280;59762;49.998;14.858;2023-04-26T02:37:25;97242.63;;;2.28;82.91
71889;BME280;59762;49.998;14.858;2023-04-26T02:39:51;97238.34;;;2.27;83.69
71889;BME280;59762;49.998;14.858;2023-04-26T02:42:17;97236.34;;;2.30;84.50
71889;BME280;59762;49.998;14.858;2023-04-26T02:44:43;97237.63;;;2.25;84.07
71889;BME280;59762;49.998;14.858;2023-04-26T02:47:09;97246.47;;;2.24;84.11
71889;BME280;59762;49.998;14.858;2023-04-26T02:49:35;97249.44;;;2.19;85.32
71889;BME280;59762;49.998;14.858;2023-04-26T02:52:01;97246.41;;;2.13;84.86
71889;BME280;59762;49.998;14.858;2023-04-26T02:54:27;97238.03;;;2.19;85.25
71889;BME280;59762;49.998;14.858;2023-04-26T02:56:52;97247.41;;;2.23;84.62
71889;BME280;59762;49.998;14.858;2023-04-26T02:59:19;97245.84;;;2.20;86.43
71889;BME280;59762;49.998;14.858;2023-04-26T03:01:45;97245.84;;;2.20;84.89
71889;BME280;59762;49.998;14.858;2023-04-26T03:04:11;97248.44;;;2.33;84.34
71889;BME280;59762;49.998;14.858;2023-04-26T03:06:37;97247.59;;;2.32;84.42
71889;BME280;59762;49.998;14.858;2023-04-26T03:09:03;97252.66;;;2.35;84.70
71889;BME280;59762;49.998;14.858;2023-04-26T03:11:30;97246.81;;;2.43;84.31
71889;BME280;59762;49.998;14.858;2023-04-26T03:13:56;97251.69;;;2.36;84.37
71889;BME280;59762;49.998;14.858;2023-04-26T03:16:22;97253.53;;;2.47;83.89
71889;BME280;59762;49.998;14.858;2023-04-26T03:18:48;97255.31;;;2.46;84.02
71889;BME280;59762;49.998;14.858;2023-04-26T03:21:13;97247.91;;;2.51;83.53
71889;BME280;59762;49.998;14.858;2023-04-26T03:23:39;97252.25;;;2.52;83.82
71889;BME280;59762;49.998;14.858;2023-04-26T03:26:05;97253.63;;;2.45;84.82
71889;BME280;59762;49.998;14.858;2023-04-26T03:28:31;97263.31;;;2.45;84.85
71889;BME280;59762;49.998;14.858;2023-04-26T03:30:56;97249.81;;;2.49;84.49
71889;BME280;59762;49.998;14.858;2023-04-26T03:33:22;97251.50;;;2.50;84.65
71889;BME280;59762;49.998;14.858;2023-04-26T03:35:48;97252.56;;;2.48;84.57
71889;BME280;59762;49.998;14.858;2023-04-26T03:38:14;97260.09;;;2.41;85.21
71889;BME280;59762;49.998;14.858;2023-04-26T03:40:39;97257.81;;;2.37;85.09
71889;BME280;59762;49.998;14.858;2023-04-26T03:43:05;97261.16;;;2.39;85.50
71889;BME280;59762;49.998;14.858;2023-04-26T03:45:31;97262.31;;;2.35;85.35
71889;BME280;59762;49.998;14.858;2023-04-26T03:47:57;97270.44;;;2.32;85.33
71889;BME280;59762;49.998;14.858;2023-04-26T03:50:22;97267.19;;;2.28;86.10
71889;BME280;59762;49.998;14.858;2023-04-26T03:52:48;97276.66;;;2.31;85.76
71889;BME280;59762;49.998;14.858;2023-04-26T03:55:14;97278.88;;;2.37;85.68
71889;BME280;59762;49.998;14.858;2023-04-26T03:57:39;97276.34;;;2.35;85.35
71889;BME280;59762;49.998;14.858;2023-04-26T04:00:05;97284.38;;;2.34;86.15
71889;BME280;59762;49.998;14.858;2023-04-26T04:02:36;97284.16;;;2.37;85.90
71889;BME280;59762;49.998;14.858;2023-04-26T04:05:02;97281.06;;;2.43;85.59
71889;BME280;59762;49.998;14.858;2023-04-26T04:07:28;97289.94;;;2.42;85.68
71889;BME280;59762;49.998;14.858;2023-04-26T04:09:53;97287.78;;;2.47;85.21
71889;BME280;59762;49.998;14.858;2023-04-26T04:12:19;97290.22;;;2.50;85.77
71889;BME280;59762;49.998;14.858;2023-04-26T04:14:45;97284.69;;;2.53;85.27
71889;BME280;59762;49.998;14.858;2023-04-26T04:17:11;97294.06;;;2.57;84.85
71889;BME280;59762;49.998;14.858;2023-04-26T04:19:36;97291.50;;;2.68;84.18
71889;BME280;59762;49.998;14.858;2023-04-26T04:22:02;97297.38;;;2.71;84.60
71889;BME280;59762;49.998;14.858;2023-04-26T04:24:28;97300.09;;;2.70;84.39
71889;BME280;59762;49.998;14.858;2023-04-26T04:26:54;97294.16;;;2.79;83.74
71889;BME280;59762;49.998;14.858;2023-04-26T04:29:20;97297.16;;;2.74;84.70
71889;BME280;59762;49.998;14.858;2023-04-26T04:31:46;97294.03;;;2.80;84.34
71889;BME280;59762;49.998;14.858;2023-04-26T04:34:11;97302.56;;;2.84;85.06
71889;BME280;59762;49.998;14.858;2023-04-26T04:36:37;97303.78;;;2.91;84.51
71889;BME280;59762;49.998;14.858;2023-04-26T04:39:05;97298.16;;;2.95;83.20
71889;BME280;59762;49.998;14.858;2023-04-26T04:41:38;97297.22;;;2.96;82.98
71889;BME280;59762;49.998;14.858;2023-04-26T04:44:05;97308.75;;;3.06;82.45
71889;BME280;59762;49.998;14.858;2023-04-26T04:46:30;97314.50;;;3.00;83.45
71889;BME280;59762;49.998;14.858;2023-04-26T04:48:56;97307.34;;;3.13;82.91
71889;BME280;59762;49.998;14.858;2023-04-26T04:51:22;97312.50;;;3.15;81.57
71889;BME280;59762;49.998;14.858;2023-04-26T04:53:47;97314.22;;;3.27;80.74
71889;BME280;59762;49.998;14.858;2023-04-26T04:56:13;97313.22;;;3.17;81.95
71889;BME280;59762;49.998;14.858;2023-04-26T04:58:40;97310.06;;;3.35;81.03
71889;BME280;59762;49.998;14.858;2023-04-26T05:01:05;97320.34;;;3.38;81.75
71889;BME280;59762;49.998;14.858;2023-04-26T05:03:31;97318.69;;;3.37;81.63
71889;BME280;59762;49.998;14.858;2023-04-26T05:05:59;97320.84;;;3.32;81.76
71889;BME280;59762;49.998;14.858;2023-04-26T05:08:24;97321.56;;;3.45;81.13
71889;BME280;59762;49.998;14.858;2023-04-26T05:10:50;97327.34;;;3.50;81.87
71889;BME280;59762;49.998;14.858;2023-04-26T05:13:17;97327.50;;;3.60;80.40
71889;BME280;59762;49.998;14.858;2023-04-26T05:15:43;97326.19;;;3.65;79.54
71889;BME280;59762;49.998;14.858;2023-04-26T05:18:08;97329.56;;;3.78;79.47
71889;BME280;59762;49.998;14.858;2023-04-26T05:20:34;97335.09;;;4.08;77.65
71889;BME280;59762;49.998;14.858;2023-04-26T05:23:00;97339.50;;;3.86;78.72
71889;BME280;59762;49.998;14.858;2023-04-26T05:25:26;97334.84;;;4.00;79.08
71889;BME280;59762;49.998;14.858;2023-04-26T05:27:51;97343.13;;;3.96;77.17
71889;BME280;59762;49.998;14.858;2023-04-26T05:30:17;97346.56;;;4.29;75.74
71889;BME280;59762;49.998;14.858;2023-04-26T05:32:43;97346.00;;;4.26;77.31
71889;BME280;59762;49.998;14.858;2023-04-26T05:35:10;97341.09;;;4.75;74.41
71889;BME280;59762;49.998;14.858;2023-04-26T05:37:35;97340.56;;;5.23;73.00
71889;BME280;59762;49.998;14.858;2023-04-26T05:40:02;97334.63;;;5.72;71.24
71889;BME280;59762;49.998;14.858;2023-04-26T05:42:28;97339.81;;;5.94;68.19
71889;BME280;59762;49.998;14.858;2023-04-26T05:44:57;97343.03;;;5.77;68.88
71889;BME280;59762;49.998;14.858;2023-04-26T05:47:23;97335.59;;;6.51;64.61
71889;BME280;59762;49.998;14.858;2023-04-26T05:49:49;97343.81;;;6.48;66.87
71889;BME280;59762;49.998;14.858;2023-04-26T05:52:14;97343.78;;;7.16;63.59
71889;BME280;59762;49.998;14.858;2023-04-26T05:54:40;97339.44;;;7.25;62.25
71889;BME280;59762;49.998;14.858;2023-04-26T05:57:06;97346.72;;;7.42;63.33
71889;BME280;59762;49.998;14.858;2023-04-26T05:59:35;97355.81;;;6.62;63.63
71889;BME280;59762;49.998;14.858;2023-04-26T06:02:00;97346.03;;;6.53;65.13
71889;BME280;59762;49.998;14.858;2023-04-26T06:04:26;97355.50;;;6.95;64.15
71889;BME280;59762;49.998;14.858;2023-04-26T06:06:52;97352.88;;;6.55;65.23
71889;BME280;59762;49.998;14.858;2023-04-26T06:09:18;97361.50;;;6.08;67.28
71889;BME280;59762;49.998;14.858;2023-04-26T06:11:43;97357.06;;;6.18;66.10
71889;BME280;59762;49.998;14.858;2023-04-26T06:14:09;97355.03;;;6.01;68.01
71889;BME280;59762;49.998;14.858;2023-04-26T06:16:34;97356.53;;;5.74;63.41
71889;BME280;59762;49.998;14.858;2023-04-26T06:19:01;97358.19;;;5.54;65.35
71889;BME280;59762;49.998;14.858;2023-04-26T06:21:26;97360.72;;;5.56;65.82
71889;BME280;59762;49.998;14.858;2023-04-26T06:23:52;97355.94;;;5.70;66.69
71889;BME280;59762;49.998;14.858;2023-04-26T06:26:18;97353.81;;;5.44;67.99
71889;BME280;59762;49.998;14.858;2023-04-26T06:28:43;97356.44;;;5.64;65.65
71889;BME280;59762;49.998;14.858;2023-04-26T06:31:09;97387.22;;;5.76;63.85
71889;BME280;59762;49.998;14.858;2023-04-26T06:33:35;97365.50;;;5.62;65.34
71889;BME280;59762;49.998;14.858;2023-04-26T06:36:00;97370.22;;;5.38;65.64
71889;BME280;59762;49.998;14.858;2023-04-26T06:38:26;97376.75;;;5.54;65.61
71889;BME280;59762;49.998;14.858;2023-04-26T06:40:52;97377.63;;;5.44;65.20
71889;BME280;59762;49.998;14.858;2023-04-26T06:43:17;97377.19;;;5.59;64.35
71889;BME280;59762;49.998;14.858;2023-04-26T06:45:43;97372.66;;;5.50;63.91
71889;BME280;59762;49.998;14.858;2023-04-26T06:48:09;97370.84;;;5.30;65.68
71889;BME280;59762;49.998;14.858;2023-04-26T06:50:37;97394.38;;;5.13;65.20
71889;BME280;59762;49.998;14.858;2023-04-26T06:53:06;97377.19;;;5.39;65.11
71889;BME280;59762;49.998;14.858;2023-04-26T06:55:32;97380.06;;;5.36;64.67
71889;BME280;59762;49.998;14.858;2023-04-26T06:57:58;97376.50;;;6.19;64.20
71889;BME280;59762;49.998;14.858;2023-04-26T07:00:24;97383.81;;;5.33;64.79
71889;BME280;59762;49.998;14.858;2023-04-26T07:02:50;97380.41;;;5.42;65.38
71889;BME280;59762;49.998;14.858;2023-04-26T07:05:15;97389.09;;;5.65;62.18
71889;BME280;59762;49.998;14.858;2023-04-26T07:07:41;97382.78;;;5.97;62.39
71889;BME280;59762;49.998;14.858;2023-04-26T07:10:08;97375.69;;;5.98;64.02
71889;BME280;59762;49.998;14.858;2023-04-26T07:12:34;97387.81;;;6.00;62.92
71889;BME280;59762;49.998;14.858;2023-04-26T07:14:59;97378.50;;;6.06;64.20
71889;BME280;59762;49.998;14.858;2023-04-26T07:17:26;97387.69;;;5.81;64.57
71889;BME280;59762;49.998;14.858;2023-04-26T07:19:51;97376.72;;;5.86;64.04
71889;BME280;59762;49.998;14.858;2023-04-26T07:22:17;97376.16;;;5.71;65.98
71889;BME280;59762;49.998;14.858;2023-04-26T07:24:43;97386.09;;;5.79;63.57
71889;BME280;59762;49.998;14.858;2023-04-26T07:27:09;97387.16;;;5.67;66.78
71889;BME280;59762;49.998;14.858;2023-04-26T07:29:35;97385.53;;;5.34;66.97
71889;BME280;59762;49.998;14.858;2023-04-26T07:32:00;97391.28;;;5.39;68.84
71889;BME280;59762;49.998;14.858;2023-04-26T07:34:26;97386.84;;;5.60;65.83
71889;BME280;59762;49.998;14.858;2023-04-26T07:36:52;97400.00;;;5.51;67.36
71889;BME280;59762;49.998;14.858;2023-04-26T07:39:17;97395.84;;;5.58;66.51
71889;BME280;59762;49.998;14.858;2023-04-26T07:41:43;97405.41;;;5.81;65.16
71889;BME280;59762;49.998;14.858;2023-04-26T07:44:09;97406.28;;;5.70;67.84
71889;BME280;59762;49.998;14.858;2023-04-26T07:46:34;97397.94;;;5.54;67.89
71889;BME280;59762;49.998;14.858;2023-04-26T07:49:00;97407.63;;;5.65;66.99
71889;BME280;59762;49.998;14.858;2023-04-26T07:51:26;97411.84;;;5.88;64.59
71889;BME280;59762;49.998;14.858;2023-04-26T07:53:51;97405.75;;;6.87;62.66
71889;BME280;59762;49.998;14.858;2023-04-26T07:56:17;97405.34;;;6.82;61.53
71889;BME280;59762;49.998;14.858;2023-04-26T07:58:43;97394.66;;;7.40;62.82
71889;BME280;59762;49.998;14.858;2023-04-26T08:01:09;97395.09;;;6.68;60.62
71889;BME280;59762;49.998;14.858;2023-04-26T08:03:36;97398.38;;;6.90;61.18
71889;BME280;59762;49.998;14.858;2023-04-26T08:06:02;97396.81;;;6.78;61.27
71889;BME280;59762;49.998;14.858;2023-04-26T08:08:28;97399.81;;;6.55;62.94
71889;BME280;59762;49.998;14.858;2023-04-26T08:10:54;97409.00;;;6.51;63.32
71889;BME280;59762;49.998;14.858;2023-04-26T08:13:20;97405.16;;;6.04;60.24
71889;BME280;59762;49.998;14.858;2023-04-26T08:15:47;97404.31;;;5.72;61.60
71889;BME280;59762;49.998;14.858;2023-04-26T08:18:13;97401.25;;;6.08;62.49
71889;BME280;59762;49.998;14.858;2023-04-26T08:20:39;97403.53;;;5.92;62.89
71889;BME280;59762;49.998;14.858;2023-04-26T08:23:05;97408.16;;;6.50;61.63
71889;BME280;59762;49.998;14.858;2023-04-26T08:25:31;97417.03;;;6.40;61.71
71889;BME280;59762;49.998;14.858;2023-04-26T08:27:59;97408.63;;;6.25;62.25
71889;BME280;59762;49.998;14.858;2023-04-26T08:30:25;97410.81;;;6.50;61.65
71889;BME280;59762;49.998;14.858;2023-04-26T08:32:51;97409.56;;;6.24;61.71
71889;BME280;59762;49.998;14.858;2023-04-26T08:35:16;97417.03;;;5.89;62.80
71889;BME280;59762;49.998;14.858;2023-04-26T08:37:42;97416.34;;;5.87;62.58
71889;BME280;59762;49.998;14.858;2023-04-26T08:40:08;97423.75;;;5.41;65.38
71889;BME280;59762;49.998;14.858;2023-04-26T08:42:39;97430.72;;;5.00;69.62
71889;BME280;59762;49.998;14.858;2023-04-26T08:45:06;97437.13;;;4.97;72.10
71889;BME280;59762;49.998;14.858;2023-04-26T08:47:42;97438.44;;;4.92;70.31
71889;BME280;59762;49.998;14.858;2023-04-26T08:50:13;97442.97;;;5.12;71.66
71889;BME280;59762;49.998;14.858;2023-04-26T08:52:40;97441.31;;;5.11;71.23
71889;BME280;59762;49.998;14.858;2023-04-26T08:55:08;97448.84;;;5.26;71.43
71889;BME280;59762;49.998;14.858;2023-04-26T08:57:34;97438.41;;;5.45;69.22
71889;BME280;59762;49.998;14.858;2023-04-26T09:00:02;97437.84;;;5.42;71.91
71889;BME280;59762;49.998;14.858;2023-04-26T09:02:30;97438.88;;;5.71;70.32
71889;BME280;59762;49.998;14.858;2023-04-26T09:04:56;97434.44;;;5.71;70.33
71889;BME280;59762;49.998;14.858;2023-04-26T09:07:41;97435.91;;;5.64;69.94
71889;BME280;59762;49.998;14.858;2023-04-26T09:10:09;97442.72;;;5.89;69.72
71889;BME280;59762;49.998;14.858;2023-04-26T09:12:35;97444.47;;;6.29;68.33
71889;BME280;59762;49.998;14.858;2023-04-26T09:15:01;97436.69;;;7.07;63.00
71889;BME280;59762;49.998;14.858;2023-04-26T09:17:32;97431.69;;;7.13;63.24
71889;BME280;59762;49.998;14.858;2023-04-26T09:19:59;97430.16;;;6.71;63.99
71889;BME280;59762;49.998;14.858;2023-04-26T09:22:30;97438.09;;;6.32;61.62
71889;BME280;59762;49.998;14.858;2023-04-26T09:24:56;97437.00;;;5.93;63.53
71889;BME280;59762;49.998;14.858;2023-04-26T09:27:31;97438.94;;;6.12;62.41
71889;BME280;59762;49.998;14.858;2023-04-26T09:30:06;97438.28;;;6.19;62.92
71889;BME280;59762;49.998;14.858;2023-04-26T09:32:56;97438.69;;;6.15;63.26
71889;BME280;59762;49.998;14.858;2023-04-26T09:35:25;97442.22;;;5.84;66.09
71889;BME280;59762;49.998;14.858;2023-04-26T09:38:06;97441.66;;;6.01;64.79
71889;BME280;59762;49.998;14.858;2023-04-26T09:40:37;97438.25;;;6.40;65.07
71889;BME280;59762;49.998;14.858;2023-04-26T09:43:04;97440.69;;;6.92;62.73
71889;BME280;59762;49.998;14.858;2023-04-26T09:45:31;97427.88;;;7.06;61.61
71889;BME280;59762;49.998;14.858;2023-04-26T09:50:51;97438.41;;;7.17;63.50
71889;BME280;59762;49.998;14.858;2023-04-26T09:56:06;97433.53;;;7.41;60.76
71889;BME280;59762;49.998;14.858;2023-04-26T09:58:35;97417.56;;;7.03;60.87
71889;BME280;59762;49.998;14.858;2023-04-26T10:01:02;97416.06;;;7.77;59.26
71889;BME280;59762;49.998;14.858;2023-04-26T10:03:28;97418.13;;;8.21;59.42
71889;BME280;59762;49.998;14.858;2023-04-26T10:05:56;97411.38;;;8.07;56.97
71889;BME280;59762;49.998;14.858;2023-04-26T10:08:22;97410.31;;;7.81;56.68
71889;BME280;59762;49.998;14.858;2023-04-26T10:10:48;97419.78;;;8.68;57.26
71889;BME280;59762;49.998;14.858;2023-04-26T10:13:14;97407.28;;;8.42;51.66
71889;BME280;59762;49.998;14.858;2023-04-26T10:15:40;97420.56;;;8.42;53.34
71889;BME280;59762;49.998;14.858;2023-04-26T10:18:07;97402.81;;;8.33;53.52
71889;BME280;59762;49.998;14.858;2023-04-26T10:20:34;97403.88;;;7.93;54.10
71889;BME280;59762;49.998;14.858;2023-04-26T10:23:11;97398.03;;;7.52;52.84
71889;BME280;59762;49.998;14.858;2023-04-26T10:25:39;97402.59;;;7.97;54.00
71889;BME280;59762;49.998;14.858;2023-04-26T10:28:06;97407.38;;;7.94;52.93
71889;BME280;59762;49.998;14.858;2023-04-26T10:30:32;97403.75;;;7.76;53.46
71889;BME280;59762;49.998;14.858;2023-04-26T10:40:38;97412.72;;;6.78;55.02
71889;BME280;59762;49.998;14.858;2023-04-26T10:45:33;97427.50;;;6.41;56.42
71889;BME280;59762;49.998;14.858;2023-04-26T10:48:18;97419.97;;;6.67;55.83
71889;BME280;59762;49.998;14.858;2023-04-26T10:56:09;97417.88;;;7.29;55.57
71889;BME280;59762;49.998;14.858;2023-04-26T10:58:35;97422.91;;;7.41;54.73
71889;BME280;59762;49.998;14.858;2023-04-26T11:01:09;97416.78;;;7.69;52.40
71889;BME280;59762;49.998;14.858;2023-04-26T11:06:26;97410.28;;;8.10;49.79
71889;BME280;59762;49.998;14.858;2023-04-26T11:12:09;97396.22;;;7.62;48.11
71889;BME280;59762;49.998;14.858;2023-04-26T11:14:35;97401.59;;;7.98;45.12
71889;BME280;59762;49.998;14.858;2023-04-26T11:17:05;97398.59;;;7.46;46.54
71889;BME280;59762;49.998;14.858;2023-04-26T11:19:31;97394.09;;;7.75;45.84
71889;BME280;59762;49.998;14.858;2023-04-26T11:22:01;97401.50;;;7.33;46.72
71889;BME280;59762;49.998;14.858;2023-04-26T11:24:30;97400.69;;;7.42;46.72
71889;BME280;59762;49.998;14.858;2023-04-26T11:26:56;97392.38;;;8.02;46.23
71889;BME280;59762;49.998;14.858;2023-04-26T11:29:23;97402.78;;;7.77;46.38
71889;BME280;59762;49.998;14.858;2023-04-26T11:36:47;97403.03;;;8.58;46.73
71889;BME280;59762;49.998;14.858;2023-04-26T11:39:13;97405.31;;;8.44;47.07
71889;BME280;59762;49.998;14.858;2023-04-26T11:41:39;97397.22;;;8.99;46.39
71889;BME280;59762;49.998;14.858;2023-04-26T11:44:05;97396.69;;;8.69;45.70
71889;BME280;59762;49.998;14.858;2023-04-26T11:46:31;97392.88;;;8.71;47.40
71889;BME280;59762;49.998;14.858;2023-04-26T11:48:57;97391.84;;;7.89;45.79
71889;BME280;59762;49.998;14.858;2023-04-26T11:51:23;97398.78;;;8.29;46.46
71889;BME280;59762;49.998;14.858;2023-04-26T11:53:49;97392.19;;;8.33;46.54
71889;BME280;59762;49.998;14.858;2023-04-26T11:56:17;97398.66;;;8.21;46.68
71889;BME280;59762;49.998;14.858;2023-04-26T11:59:05;97400.47;;;8.30;44.79
71889;BME280;59762;49.998;14.858;2023-04-26T12:01:32;97403.56;;;8.25;46.51
71889;BME280;59762;49.998;14.858;2023-04-26T12:04:00;97407.38;;;8.50;45.72
71889;BME280;59762;49.998;14.858;2023-04-26T12:06:30;97403.78;;;8.41;46.00
71889;BME280;59762;49.998;14.858;2023-04-26T12:08:59;97411.97;;;7.92;45.26
71889;BME280;59762;49.998;14.858;2023-04-26T12:11:25;97413.81;;;7.82;45.39
71889;BME280;59762;49.998;14.858;2023-04-26T12:13:51;97410.47;;;7.80;45.44
71889;BME280;59762;49.998;14.858;2023-04-26T12:16:17;97415.34;;;7.94;47.06
71889;BME280;59762;49.998;14.858;2023-04-26T12:18:49;97404.72;;;7.84;44.65
71889;BME280;59762;49.998;14.858;2023-04-26T12:21:15;97406.06;;;8.07;44.38
71889;BME280;59762;49.998;14.858;2023-04-26T12:23:41;97411.94;;;8.21;45.24
71889;BME280;59762;49.998;14.858;2023-04-26T12:26:07;97413.19;;;8.26;47.23
71889;BME280;59762;49.998;14.858;2023-04-26T12:28:35;97414.03;;;8.17;45.16
71889;BME280;59762;49.998;14.858;2023-04-26T12:31:02;97411.47;;;8.44;45.40
71889;BME280;59762;49.998;14.858;2023-04-26T12:33:29;97404.75;;;8.77;42.54
71889;BME280;59762;49.998;14.858;2023-04-26T12:35:55;97410.00;;;8.69;44.89
71889;BME280;59762;49.998;14.858;2023-04-26T12:38:22;97392.50;;;9.11;43.52
71889;BME280;59762;49.998;14.858;2023-04-26T12:40:47;97383.78;;;9.36;42.29
71889;BME280;59762;49.998;14.858;2023-04-26T12:43:13;97397.91;;;9.01;43.54
71889;BME280;59762;49.998;14.858;2023-04-26T12:45:40;97390.22;;;8.98;42.28
71889;BME280;59762;49.998;14.858;2023-04-26T12:48:06;97391.69;;;8.83;42.13
71889;BME280;59762;49.998;14.858;2023-04-26T12:50:32;97404.66;;;8.96;44.05
71889;BME280;59762;49.998;14.858;2023-04-26T12:52:58;97396.16;;;9.10;40.95
71889;BME280;59762;49.998;14.858;2023-04-26T12:55:23;97401.00;;;8.97;42.02
71889;BME280;59762;49.998;14.858;2023-04-26T12:57:49;97403.13;;;8.10;44.61
71889;BME280;59762;49.998;14.858;2023-04-26T13:00:16;97413.59;;;8.77;43.25
71889;BME280;59762;49.998;14.858;2023-04-26T13:02:42;97400.47;;;8.20;44.92
71889;BME280;59762;49.998;14.858;2023-04-26T13:05:08;97401.00;;;8.33;44.78
71889;BME280;59762;49.998;14.858;2023-04-26T13:07:36;97406.72;;;8.48;44.04
71889;BME280;59762;49.998;14.858;2023-04-26T13:10:04;97399.38;;;8.59;43.71
71889;BME280;59762;49.998;14.858;2023-04-26T13:12:30;97400.00;;;8.80;44.35
71889;BME280;59762;49.998;14.858;2023-04-26T13:14:56;97401.06;;;9.32;43.85
71889;BME280;59762;49.998;14.858;2023-04-26T13:17:23;97388.91;;;9.47;43.99
71889;BME280;59762;49.998;14.858;2023-04-26T13:19:49;97389.13;;;9.88;41.43
71889;BME280;59762;49.998;14.858;2023-04-26T13:22:15;97387.91;;;9.48;41.15
71889;BME280;59762;49.998;14.858;2023-04-26T13:24:41;97408.53;;;8.74;43.00
71889;BME280;59762;49.998;14.858;2023-04-26T13:27:07;97407.16;;;8.70;44.48
71889;BME280;59762;49.998;14.858;2023-04-26T13:29:32;97406.31;;;8.43;44.21
71889;BME280;59762;49.998;14.858;2023-04-26T13:31:59;97413.50;;;8.60;45.38